Time;durP1;ratioP1;P1;durP2;ratioP2;P2;SDS_P1;SDS_P2;PMS_P1;PMS_P2;Temp;Humidity;BMP_temperature;BMP_pressure;BME280_temperature;BME280_humidity;BME280_pressure;Samples;Min_cycle;Max_cycle;Signal;HPM_P1;HPM_P2
2023/05/26 00:00:36;;;;;;;16.63;10.27;;;;;;;-142.57;100.00;115900.28;4881148;29;20124;-85
2023/05/26 00:03:03;;;;;;;23.08;10.10;;;;;;;-142.57;100.00;115900.28;4895020;29;20555;-86
2023/05/26 00:05:29;;;;;;;16.27;9.77;;;;;;;-142.57;100.00;115900.28;4881251;29;20037;-83
2023/05/26 00:07:55;;;;;;;19.02;9.77;;;;;;;-142.57;100.00;115900.28;4880904;29;20048;-85
2023/05/26 00:10:21;;;;;;;20.67;11.05;;;;;;;-142.57;100.00;115900.28;4884153;29;20047;-84
2023/05/26 00:12:47;;;;;;;25.67;11.35;;;;;;;-142.57;100.00;115900.28;4881208;29;20081;-83
2023/05/26 00:15:12;;;;;;;22.83;10.30;;;;;;;-142.57;100.00;115900.28;4880799;29;20045;-86
2023/05/26 00:17:38;;;;;;;24.55;11.10;;;;;;;-142.57;100.00;115900.28;4880678;29;20037;-85
2023/05/26 00:20:07;;;;;;;20.35;10.90;;;;;;;-142.57;100.00;115900.28;4880759;29;20040;-85
2023/05/26 00:22:33;;;;;;;21.80;11.85;;;;;;;-142.57;100.00;115900.28;4880790;29;20041;-84
2023/05/26 00:24:59;;;;;;;21.10;11.45;;;;;;;-142.57;100.00;115900.28;4880985;29;20045;-85
2023/05/26 00:27:24;;;;;;;19.88;11.18;;;;;;;-142.57;100.00;115900.28;4881147;29;20126;-87
2023/05/26 00:29:51;;;;;;;25.38;12.35;;;;;;;-142.57;100.00;115900.28;4880154;29;20174;-85
2023/05/26 00:32:18;;;;;;;19.08;12.15;;;;;;;-142.57;100.00;115900.28;4878890;29;20085;-87
2023/05/26 00:34:43;;;;;;;22.58;12.00;;;;;;;-142.57;100.00;115900.28;4879736;29;20064;-84
2023/05/26 00:37:09;;;;;;;19.42;11.30;;;;;;;-142.57;100.00;115900.28;4878658;29;20044;-83
2023/05/26 00:39:35;;;;;;;21.17;12.38;;;;;;;-142.57;100.00;115900.28;4880024;29;20041;-86
2023/05/26 00:42:01;;;;;;;17.30;12.23;;;;;;;-142.57;100.00;115900.28;4878988;29;20596;-85
2023/05/26 00:44:27;;;;;;;19.02;12.32;;;;;;;-142.57;100.00;115900.28;4878975;29;20036;-86
2023/05/26 00:46:52;;;;;;;25.58;12.35;;;;;;;-142.57;100.00;115900.28;4880017;29;20049;-86
2023/05/26 00:49:18;;;;;;;21.77;12.00;;;;;;;-142.57;100.00;115900.28;4894209;29;20071;-85
2023/05/26 00:51:45;;;;;;;22.80;12.32;;;;;;;-142.57;100.00;115900.28;4894944;29;20041;-86
2023/05/26 00:54:13;;;;;;;23.80;10.98;;;;;;;-142.57;100.00;115900.28;4881275;29;20045;-89
2023/05/26 00:56:41;;;;;;;21.90;12.25;;;;;;;-142.57;100.00;115900.28;4894762;29;20116;-83
2023/05/26 00:59:10;;;;;;;22.83;13.23;;;;;;;-142.57;100.00;115900.28;4891343;29;20516;-81
2023/05/26 01:01:36;;;;;;;20.92;11.40;;;;;;;-142.57;100.00;115900.28;4892432;29;20037;-82
2023/05/26 01:04:01;;;;;;;20.23;11.60;;;;;;;-142.57;100.00;115900.28;4890946;29;20392;-85
2023/05/26 01:06:27;;;;;;;24.75;12.50;;;;;;;-142.57;100.00;115900.28;4879342;29;20120;-84
2023/05/26 01:08:52;;;;;;;22.95;12.88;;;;;;;-142.57;100.00;115900.28;4879411;29;20033;-85
2023/05/26 01:11:26;;;;;;;23.20;13.02;;;;;;;-142.57;100.00;115900.28;4894320;29;20047;-84
2023/05/26 01:14:06;;;;;;;23.17;11.43;;;;;;;-142.57;100.00;115900.28;4878850;29;20041;-83
2023/05/26 01:16:39;;;;;;;25.63;12.65;;;;;;;-142.57;100.00;115900.28;4879715;29;20040;-82
2023/05/26 01:19:34;;;;;;;17.88;12.50;;;;;;;-142.57;100.00;115900.28;4877849;29;20052;-82
2023/05/26 01:22:26;;;;;;;25.63;12.68;;;;;;;-142.57;100.00;115900.28;4879419;29;20056;-83
2023/05/26 01:25:04;;;;;;;22.93;12.57;;;;;;;-142.57;100.00;115900.28;4878914;29;20049;-84
2023/05/26 01:27:55;;;;;;;35.47;14.18;;;;;;;-142.57;100.00;115900.28;4878935;29;20047;-86
2023/05/26 01:30:20;;;;;;;24.63;13.82;;;;;;;-142.57;100.00;115900.28;4878895;29;20040;-86
2023/05/26 01:32:47;;;;;;;23.70;14.13;;;;;;;-142.57;100.00;115900.28;4879121;29;20428;-86
2023/05/26 01:35:14;;;;;;;24.77;13.77;;;;;;;-142.57;100.00;115900.28;4877597;29;20047;-84
2023/05/26 01:37:41;;;;;;;27.20;12.77;;;;;;;-142.57;100.00;115900.28;4877844;29;20444;-85
2023/05/26 01:40:08;;;;;;;28.55;12.88;;;;;;;-142.57;100.00;115900.28;4879563;29;20040;-84
2023/05/26 01:42:41;;;;;;;24.98;12.88;;;;;;;-142.57;100.00;115900.28;4877926;29;20514;-84
2023/05/26 01:46:01;;;;;;;22.08;13.13;;;;;;;-142.57;100.00;115900.28;4878053;29;20101;-84
2023/05/26 01:56:33;;;;;;;30.52;12.45;;;;;;;-142.57;100.00;115900.28;4805041;29;20065;-84
2023/05/26 01:59:42;;;;;;;26.02;12.75;;;;;;;-142.57;100.00;115900.28;4758496;29;20051;-82
2023/05/26 02:02:12;;;;;;;22.05;12.50;;;;;;;-142.57;100.00;115900.28;4789284;29;20047;-85
2023/05/26 02:04:38;;;;;;;24.85;12.57;;;;;;;-142.57;100.00;115900.28;4789864;29;20418;-82
2023/05/26 02:07:05;;;;;;;25.55;13.50;;;;;;;-142.57;100.00;115900.28;4789857;29;20210;-81
2023/05/26 02:09:39;;;;;;;27.52;13.45;;;;;;;-142.57;100.00;115900.28;4812178;29;20094;-82
2023/05/26 02:12:06;;;;;;;22.17;12.75;;;;;;;-142.57;100.00;115900.28;4840812;29;20050;-83
2023/05/26 02:14:35;;;;;;;23.90;12.77;;;;;;;-142.57;100.00;115900.28;4824831;29;20046;-83
2023/05/26 02:17:05;;;;;;;26.02;11.73;;;;;;;-142.57;100.00;115900.28;4840136;29;20064;-81
2023/05/26 02:19:37;;;;;;;27.63;12.02;;;;;;;-142.57;100.00;115900.28;4827866;29;20057;-82
2023/05/26 02:22:08;;;;;;;20.08;9.02;;;;;;;-142.57;100.00;115900.28;4829754;29;20148;-80
2023/05/26 02:25:06;;;;;;;25.30;12.55;;;;;;;-142.57;100.00;115900.28;4840312;29;20042;-82
2023/05/26 02:27:32;;;;;;;22.75;12.30;;;;;;;-142.57;100.00;115900.28;4829652;29;20037;-85
2023/05/26 02:30:06;;;;;;;22.73;12.23;;;;;;;-142.57;100.00;115900.28;4828777;29;20036;-83
2023/05/26 02:32:31;;;;;;;27.88;12.70;;;;;;;-142.57;100.00;115900.28;4900151;29;20517;-83
2023/05/26 02:35:05;;;;;;;24.58;13.52;;;;;;;-142.57;100.00;115900.28;4904324;29;20048;-85
2023/05/26 02:37:31;;;;;;;23.45;13.90;;;;;;;-142.57;100.00;115900.28;4906398;29;20139;-83
2023/05/26 02:40:04;;;;;;;18.17;12.40;;;;;;;-142.57;100.00;115900.28;4904811;29;20082;-83
2023/05/26 02:42:33;;;;;;;23.83;12.20;;;;;;;-142.57;100.00;115900.28;4902414;29;20036;-85
2023/05/26 02:44:58;;;;;;;24.08;12.95;;;;;;;-142.57;100.00;115900.28;4900976;29;20046;-84
2023/05/26 02:47:24;;;;;;;26.67;12.88;;;;;;;-142.57;100.00;115900.28;4902423;29;20033;-83
2023/05/26 02:49:51;;;;;;;22.15;12.20;;;;;;;-142.57;100.00;115900.28;4885030;29;20055;-83
2023/05/26 02:52:16;;;;;;;25.40;12.55;;;;;;;-142.57;100.00;115900.28;4901479;29;20049;-84
2023/05/26 02:54:42;;;;;;;16.75;12.55;;;;;;;-142.57;100.00;115900.28;4902139;29;20189;-86
2023/05/26 02:57:07;;;;;;;20.55;11.82;;;;;;;-142.57;100.00;115900.28;4901675;29;20187;-88
2023/05/26 02:59:33;;;;;;;22.45;12.48;;;;;;;-142.57;100.00;115900.28;4902520;29;20033;-87
2023/05/26 03:01:58;;;;;;;18.13;12.05;;;;;;;-142.57;100.00;115900.28;4902578;29;20039;-84
2023/05/26 03:04:24;;;;;;;20.42;11.68;;;;;;;-142.57;100.00;115900.28;4902766;29;20041;-86
2023/05/26 03:06:49;;;;;;;19.42;12.38;;;;;;;-142.57;100.00;115900.28;4910641;29;20031;-87
2023/05/26 03:09:17;;;;;;;22.77;12.38;;;;;;;-142.57;100.00;115900.28;4922613;29;20037;-86
2023/05/26 03:11:43;;;;;;;22.17;12.90;;;;;;;-142.57;100.00;115900.28;4922794;29;20028;-85
2023/05/26 03:14:09;;;;;;;21.83;12.43;;;;;;;-142.57;100.00;115900.28;4922300;29;20048;-83
2023/05/26 03:16:34;;;;;;;20.63;12.10;;;;;;;-142.57;100.00;115900.28;4922753;29;20028;-83
2023/05/26 03:19:00;;;;;;;21.75;12.52;;;;;;;-142.57;100.00;115900.28;4920752;29;20024;-84
2023/05/26 03:21:47;;;;;;;26.25;12.57;;;;;;;-142.57;100.00;115900.28;4922332;29;20032;-81
2023/05/26 03:24:14;;;;;;;22.08;12.38;;;;;;;-142.57;100.00;115900.28;4922946;29;20121;-85
2023/05/26 03:26:40;;;;;;;25.65;12.90;;;;;;;-142.57;100.00;115900.28;4923089;29;20029;-86
2023/05/26 03:29:06;;;;;;;20.02;12.23;;;;;;;-142.57;100.00;115900.28;4922583;29;20031;-84
2023/05/26 03:31:53;;;;;;;20.73;12.07;;;;;;;-142.57;100.00;115900.28;4922821;29;20025;-86
2023/05/26 03:34:18;;;;;;;24.60;12.60;;;;;;;-142.57;100.00;115900.28;4921619;29;20033;-84
2023/05/26 03:36:45;;;;;;;22.92;12.43;;;;;;;-142.57;100.00;115900.28;4916609;29;20109;-85
2023/05/26 03:39:22;;;;;;;22.92;11.55;;;;;;;-142.57;100.00;115900.28;5002918;23;20227;-83
2023/05/26 03:41:51;;;;;;;20.35;11.77;;;;;;;-142.57;100.00;115900.28;4904247;29;20032;-83
2023/05/26 03:44:21;;;;;;;23.77;12.13;;;;;;;-142.57;100.00;115900.28;4891178;29;20059;-90
2023/05/26 03:46:47;;;;;;;16.10;11.90;;;;;;;-142.57;100.00;115900.28;4869755;29;20135;-88
2023/05/26 03:49:13;;;;;;;23.98;11.77;;;;;;;-142.57;100.00;115900.28;4885517;29;20029;-91
2023/05/26 03:51:40;;;;;;;18.40;10.90;;;;;;;-142.57;100.00;115900.28;4884945;29;20032;-88
2023/05/26 03:54:05;;;;;;;17.73;11.85;;;;;;;-142.57;100.00;115900.28;4869408;29;20040;-87
2023/05/26 03:56:32;;;;;;;21.52;11.25;;;;;;;-142.57;100.00;115900.28;4884911;29;20041;-87
2023/05/26 03:58:58;;;;;;;28.13;12.38;;;;;;;-142.57;100.00;115900.28;4901405;29;20037;-88
2023/05/26 04:01:25;;;;;;;19.70;11.60;;;;;;;-142.57;100.00;115900.28;4884767;29;20455;-87
2023/05/26 04:03:51;;;;;;;19.95;10.40;;;;;;;-142.57;100.00;115900.28;4884206;29;20433;-87
2023/05/26 04:06:18;;;;;;;24.17;10.93;;;;;;;-142.57;100.00;115900.28;4884667;29;20044;-85
2023/05/26 04:08:43;;;;;;;17.95;10.00;;;;;;;-142.57;100.00;115900.28;4884730;29;20029;-89
2023/05/26 04:11:10;;;;;;;15.13;9.63;;;;;;;-142.57;100.00;115900.28;4901714;29;20064;-87
2023/05/26 04:13:40;;;;;;;18.95;10.10;;;;;;;-142.57;100.00;115900.28;4886780;29;20044;-86
2023/05/26 04:16:08;;;;;;;22.50;10.10;;;;;;;-142.57;100.00;115900.28;4900895;29;20123;-85
2023/05/26 04:18:36;;;;;;;22.08;10.13;;;;;;;-142.57;100.00;115900.28;4901609;29;20043;-88
2023/05/26 04:21:01;;;;;;;16.33;9.80;;;;;;;-142.57;100.00;115900.28;4884375;29;20532;-89
2023/05/26 04:23:27;;;;;;;13.30;8.98;;;;;;;-142.57;100.00;115900.28;4901890;29;20044;-87
2023/05/26 04:25:55;;;;;;;18.77;10.00;;;;;;;-142.57;100.00;115900.28;4902696;29;20048;-83
2023/05/26 04:28:39;;;;;;;19.17;10.20;;;;;;;-142.57;100.00;115900.28;4885374;29;20153;-86
2023/05/26 04:31:17;;;;;;;17.50;9.20;;;;;;;-142.57;100.00;115900.28;4888384;29;20076;-88
2023/05/26 04:34:06;;;;;;;15.25;10.02;;;;;;;-142.57;100.00;115900.28;4884479;29;20455;-84
2023/05/26 04:36:40;;;;;;;18.40;11.18;;;;;;;-142.57;100.00;115900.28;4901884;29;20041;-89
2023/05/26 04:39:06;;;;;;;25.88;11.93;;;;;;;-142.57;100.00;115900.28;4885903;29;20088;-85
2023/05/26 04:41:32;;;;;;;18.30;10.93;;;;;;;-142.57;100.00;115900.28;4884112;29;20067;-88
2023/05/26 04:44:01;;;;;;;19.92;11.88;;;;;;;-142.57;100.00;115900.28;4885257;29;20031;-87
2023/05/26 04:46:30;;;;;;;19.40;10.80;;;;;;;-142.57;100.00;115900.28;4885739;29;20462;-82
2023/05/26 04:48:59;;;;;;;22.33;11.93;;;;;;;-142.57;100.00;115900.28;4883980;29;20047;-84
2023/05/26 04:51:25;;;;;;;24.73;12.07;;;;;;;-142.57;100.00;115900.28;4884165;29;20064;-85
2023/05/26 04:53:51;;;;;;;23.52;12.02;;;;;;;-142.57;100.00;115900.28;4883996;29;20032;-83
2023/05/26 04:56:17;;;;;;;21.05;12.88;;;;;;;-142.57;100.00;115900.28;4886491;29;20056;-87
2023/05/26 04:58:50;;;;;;;21.70;12.63;;;;;;;-142.57;100.00;115900.28;4884545;29;20424;-86
2023/05/26 05:01:17;;;;;;;25.88;12.52;;;;;;;-142.57;100.00;115900.28;4902601;29;20059;-83
2023/05/26 05:04:08;;;;;;;23.95;12.18;;;;;;;-142.57;100.00;115900.28;4888573;29;20051;-89
2023/05/26 05:06:37;;;;;;;21.67;11.82;;;;;;;-142.57;100.00;115900.28;4885229;29;20051;-85
2023/05/26 05:09:03;;;;;;;25.95;12.52;;;;;;;-142.57;100.00;115900.28;4868019;29;20045;-86
2023/05/26 05:11:29;;;;;;;24.45;11.77;;;;;;;-142.57;100.00;115900.28;4883081;29;20032;-89
2023/05/26 05:13:55;;;;;;;22.70;12.38;;;;;;;-142.57;100.00;115900.28;4883415;29;20130;-84
2023/05/26 05:16:21;;;;;;;19.77;12.23;;;;;;;-142.57;100.00;115900.28;4883150;29;20481;-83
2023/05/26 05:18:48;;;;;;;23.60;12.30;;;;;;;-142.57;100.00;115900.28;4883285;29;20035;-83
2023/05/26 05:21:13;;;;;;;27.20;11.68;;;;;;;-142.57;100.00;115900.28;4901048;29;20375;-81
2023/05/26 05:23:39;;;;;;;14.05;11.05;;;;;;;-142.57;100.00;115900.28;4884158;29;20067;-80
2023/05/26 05:26:04;;;;;;;17.33;11.05;;;;;;;-142.57;100.00;115900.28;4888378;29;20071;-84
2023/05/26 05:28:31;;;;;;;24.15;11.32;;;;;;;-142.57;100.00;115900.28;4887376;29;20115;-81
2023/05/26 05:31:03;;;;;;;19.83;11.38;;;;;;;-142.57;100.00;115900.28;4887485;29;20048;-82
2023/05/26 05:33:30;;;;;;;15.35;10.32;;;;;;;-142.57;100.00;115900.28;4886249;29;20041;-80
2023/05/26 05:35:56;;;;;;;23.13;11.10;;;;;;;-142.57;100.00;115900.28;4902452;29;20032;-84
2023/05/26 05:38:22;;;;;;;23.95;10.93;;;;;;;-142.57;100.00;115900.28;4883065;29;20084;-82
2023/05/26 05:40:48;;;;;;;22.95;11.07;;;;;;;-142.57;100.00;115900.28;4866700;29;20144;-83
2023/05/26 05:43:14;;;;;;;16.08;10.52;;;;;;;-142.57;100.00;115900.28;4882008;29;20138;-81
2023/05/26 05:45:40;;;;;;;18.77;10.10;;;;;;;-142.57;100.00;115900.28;4898810;29;20043;-86
2023/05/26 05:48:06;;;;;;;16.95;9.70;;;;;;;-142.57;100.00;115900.28;4882961;29;20431;-85
2023/05/26 05:50:36;;;;;;;15.80;10.10;;;;;;;-142.57;100.00;115900.28;4882422;29;20046;-83
2023/05/26 05:53:01;;;;;;;16.35;9.32;;;;;;;-142.57;100.00;115900.28;4882019;29;20060;-88
2023/05/26 05:55:27;;;;;;;25.92;10.40;;;;;;;-142.57;100.00;115900.28;4881986;29;20040;-82
2023/05/26 05:57:53;;;;;;;21.15;9.20;;;;;;;-142.57;100.00;115900.28;4881915;29;20994;-85
2023/05/26 06:00:19;;;;;;;19.48;8.35;;;;;;;-142.57;100.00;115900.28;4881768;29;20044;-82
2023/05/26 06:02:45;;;;;;;18.45;8.65;;;;;;;-142.57;100.00;115900.28;4881910;29;20509;-81
2023/05/26 06:05:10;;;;;;;14.07;8.23;;;;;;;-142.57;100.00;115900.28;4882153;29;20046;-82
2023/05/26 06:07:36;;;;;;;16.92;7.90;;;;;;;-142.57;100.00;115900.28;4899701;29;20036;-82
2023/05/26 06:10:02;;;;;;;12.85;7.55;;;;;;;-142.57;100.00;115900.28;4881363;29;20505;-84
2023/05/26 06:12:27;;;;;;;16.25;7.50;;;;;;;-142.57;100.00;115900.28;4881783;29;20036;-84
2023/05/26 06:14:53;;;;;;;17.15;7.72;;;;;;;-142.57;100.00;115900.28;4884935;29;20048;-85
2023/05/26 06:17:19;;;;;;;18.70;7.47;;;;;;;-142.57;100.00;115900.28;4882468;29;20041;-80
2023/05/26 06:19:46;;;;;;;14.52;7.20;;;;;;;-142.57;100.00;115900.28;4888399;29;20064;-83
2023/05/26 06:22:11;;;;;;;10.65;6.68;;;;;;;-142.57;100.00;115900.28;4885030;29;20105;-81
2023/05/26 06:24:38;;;;;;;11.93;6.18;;;;;;;-142.57;100.00;115900.28;4892939;29;20410;-80
2023/05/26 06:27:07;;;;;;;11.77;5.93;;;;;;;-142.57;100.00;115900.28;4890971;29;20037;-86
2023/05/26 06:29:33;;;;;;;12.13;6.55;;;;;;;-142.57;100.00;115900.28;4897811;29;20032;-83
2023/05/26 06:31:59;;;;;;;17.60;6.28;;;;;;;-142.57;100.00;115900.28;4897066;29;20040;-86
2023/05/26 06:34:28;;;;;;;12.25;5.82;;;;;;;-142.57;100.00;115900.28;4897000;29;20029;-85
2023/05/26 06:36:54;;;;;;;14.07;6.15;;;;;;;-142.57;100.00;115900.28;4895132;29;20126;-87
2023/05/26 06:39:21;;;;;;;12.82;6.32;;;;;;;-142.57;96.67;115900.28;4901317;29;20048;-87
2023/05/26 06:41:47;;;;;;;13.65;6.43;;;;;;;-142.57;87.47;115900.28;4868412;29;20040;-87
2023/05/26 06:44:12;;;;;;;13.38;5.47;;;;;;;-142.57;87.52;115900.28;4883094;29;20036;-86
2023/05/26 06:46:41;;;;;;;9.18;5.45;;;;;;;-142.57;82.27;115900.28;4900852;29;20045;-87
2023/05/26 06:49:06;;;;;;;9.10;5.63;;;;;;;-142.57;86.67;115900.28;4882761;29;20063;-85
2023/05/26 06:51:44;;;;;;;15.02;6.35;;;;;;;-142.57;87.72;115900.28;4881798;29;20132;-88
2023/05/26 06:54:10;;;;;;;12.90;6.80;;;;;;;-142.57;86.90;115900.28;4868237;29;20167;-86
2023/05/26 06:56:36;;;;;;;12.55;5.75;;;;;;;-142.57;90.41;115900.28;4884645;29;20028;-83
2023/05/26 06:59:01;;;;;;;10.82;6.00;;;;;;;-142.57;88.43;115900.28;4900694;29;20037;-82
2023/05/26 07:01:27;;;;;;;13.07;5.70;;;;;;;-142.57;87.14;115900.28;4899413;29;20043;-80
2023/05/26 07:03:53;;;;;;;17.85;6.97;;;;;;;-142.57;89.34;115900.28;4904352;29;20037;-81
2023/05/26 07:06:24;;;;;;;16.17;6.68;;;;;;;-142.57;89.45;115900.28;4906094;29;20475;-85
2023/05/26 07:08:52;;;;;;;15.98;6.75;;;;;;;-142.57;87.90;115900.28;4889623;29;20048;-83
2023/05/26 07:11:27;;;;;;;13.10;5.97;;;;;;;-142.57;89.02;115900.28;4900165;29;20036;-84
2023/05/26 07:13:59;;;;;;;10.75;5.97;;;;;;;-142.57;86.88;115900.28;4900414;29;20107;-88
2023/05/26 07:16:25;;;;;;;13.27;6.38;;;;;;;-142.57;85.16;115900.28;4899584;29;20471;-83
2023/05/26 07:18:50;;;;;;;12.82;6.88;;;;;;;-142.57;84.59;115900.28;4898128;29;20028;-84
2023/05/26 07:21:19;;;;;;;14.88;6.75;;;;;;;-142.57;78.73;115900.28;4894783;29;20215;-84
2023/05/26 07:23:48;;;;;;;13.37;6.80;;;;;;;-142.57;78.70;115900.28;4893466;29;20040;-83
2023/05/26 07:26:14;;;;;;;14.25;7.05;;;;;;;-142.57;79.35;115900.28;4882898;29;20040;-84
2023/05/26 07:28:42;;;;;;;14.50;6.65;;;;;;;-142.57;76.65;115900.28;4886315;29;20045;-82
2023/05/26 07:31:08;;;;;;;13.73;6.10;;;;;;;-142.57;75.91;115900.28;4884554;29;20040;-84
2023/05/26 07:33:36;;;;;;;18.90;6.75;;;;;;;-142.57;74.50;115900.28;4881061;29;20375;-84
2023/05/26 07:36:02;;;;;;;12.27;5.88;;;;;;;-142.57;67.18;115900.28;4884604;29;20041;-85
2023/05/26 07:38:28;;;;;;;14.50;6.07;;;;;;;-142.57;65.25;115900.28;4877980;29;20191;-82
2023/05/26 07:40:54;;;;;;;12.38;6.68;;;;;;;-142.57;64.11;115900.28;4893270;29;20044;-84
2023/05/26 07:43:19;;;;;;;13.70;6.70;;;;;;;-142.57;63.31;115900.28;4866588;29;20075;-82
2023/05/26 07:45:48;;;;;;;15.98;6.32;;;;;;;-142.57;60.41;115900.28;4882255;29;20416;-82
2023/05/26 07:48:14;;;;;;;10.15;6.38;;;;;;;-142.57;61.99;115900.28;4899586;29;20119;-85
2023/05/26 07:50:40;;;;;;;17.10;6.38;;;;;;;-142.57;58.19;115900.28;4899017;29;20032;-82
2023/05/26 07:53:09;;;;;;;11.60;6.90;;;;;;;-142.57;58.72;115900.28;4899356;29;20048;-81
2023/05/26 07:55:35;;;;;;;13.75;6.70;;;;;;;-142.57;57.87;115900.28;4883490;29;20154;-81
2023/05/26 07:58:00;;;;;;;13.38;7.25;;;;;;;-142.57;58.25;115900.28;4900919;29;20037;-88
2023/05/26 08:00:26;;;;;;;13.15;7.63;;;;;;;-142.57;57.97;115900.28;4900673;29;20036;-83
2023/05/26 08:02:52;;;;;;;15.40;7.40;;;;;;;-142.57;56.17;115900.28;4901828;29;20029;-83
2023/05/26 08:05:18;;;;;;;11.95;7.18;;;;;;;-142.57;56.50;115900.28;4900573;29;20120;-84
2023/05/26 08:07:43;;;;;;;13.32;7.20;;;;;;;-142.57;56.08;115900.28;4883672;29;20104;-87
2023/05/26 08:10:09;;;;;;;14.25;7.07;;;;;;;-142.57;55.65;115900.28;4888250;29;20044;-87
2023/05/26 08:12:35;;;;;;;10.45;7.70;;;;;;;-142.57;52.02;115900.28;4903602;29;20069;-91
2023/05/26 08:15:15;;;;;;;18.15;7.00;;;;;;;-142.57;53.45;115900.28;4903861;29;20061;-87
2023/05/26 08:17:42;;;;;;;13.55;7.28;;;;;;;-142.57;54.58;115900.28;4885712;29;20039;-87
2023/05/26 08:20:08;;;;;;;14.82;6.55;;;;;;;-142.57;53.83;115900.28;4904124;29;20045;-86
2023/05/26 08:22:35;;;;;;;19.35;7.22;;;;;;;-142.57;51.52;115900.28;4902062;29;20060;-84
2023/05/26 08:25:01;;;;;;;12.65;6.70;;;;;;;-142.57;52.08;115900.28;4869030;29;20355;-88
2023/05/26 08:27:26;;;;;;;13.82;6.95;;;;;;;-142.57;52.31;115900.28;4885759;29;20029;-87
2023/05/26 08:29:52;;;;;;;12.13;6.68;;;;;;;-142.57;53.84;115900.28;4902867;29;20123;-85
2023/05/26 08:32:17;;;;;;;13.55;7.15;;;;;;;-142.57;53.49;115900.28;4902785;29;20048;-87
2023/05/26 08:34:44;;;;;;;15.23;7.53;;;;;;;-142.57;52.80;115900.28;4904473;29;20036;-88
2023/05/26 08:37:13;;;;;;;15.48;6.70;;;;;;;-142.57;52.65;115900.28;4902844;29;20036;-90
2023/05/26 08:39:39;;;;;;;18.02;8.10;;;;;;;-142.57;51.52;115900.28;4904007;29;20104;-88
2023/05/26 08:42:06;;;;;;;16.45;7.05;;;;;;;-142.57;50.74;115900.28;4908000;29;20349;-89
2023/05/26 08:44:36;;;;;;;13.77;7.47;;;;;;;-142.57;52.57;115900.28;4905873;29;20128;-88
2023/05/26 08:47:05;;;;;;;11.15;7.88;;;;;;;-142.57;52.44;115900.28;4904376;29;20069;-88
2023/05/26 08:49:36;;;;;;;13.25;7.40;;;;;;;-142.57;51.32;115900.28;4887484;29;20068;-85
2023/05/26 08:52:22;;;;;;;17.45;7.43;;;;;;;-142.57;51.30;115900.28;4903203;29;20065;-87
2023/05/26 08:54:50;;;;;;;21.08;8.15;;;;;;;-142.57;51.91;115900.28;4900570;29;20040;-89
2023/05/26 08:57:18;;;;;;;16.40;6.97;;;;;;;-142.57;53.20;115900.28;4900245;29;20043;-87
2023/05/26 08:59:46;;;;;;;11.38;6.35;;;;;;;-142.57;51.74;115900.28;4899433;29;20051;-88
2023/05/26 09:02:12;;;;;;;11.77;7.60;;;;;;;-142.57;52.28;115900.28;4882691;29;20490;-90
2023/05/26 09:04:38;;;;;;;12.40;7.28;;;;;;;-142.57;52.47;115900.28;4896643;29;20104;-88
2023/05/26 09:07:08;;;;;;;15.23;7.50;;;;;;;-142.57;52.63;115900.28;4901368;29;20064;-85
2023/05/26 09:09:36;;;;;;;10.40;6.85;;;;;;;-142.57;52.54;115900.28;4899506;29;20504;-87
2023/05/26 09:12:02;;;;;;;24.55;6.72;;;;;;;-142.57;52.56;115900.28;4900068;29;20363;-88
2023/05/26 09:14:28;;;;;;;12.27;6.70;;;;;;;-142.57;49.75;115900.28;4885896;29;20037;-87
2023/05/26 09:16:58;;;;;;;10.35;6.90;;;;;;;-142.57;50.07;115900.28;4903629;29;20036;-87
2023/05/26 09:19:25;;;;;;;15.82;5.75;;;;;;;-142.57;50.12;115900.28;4903566;29;20047;-88
2023/05/26 09:21:52;;;;;;;14.15;6.13;;;;;;;-142.57;50.05;115900.28;4884411;29;20398;-84
2023/05/26 09:24:20;;;;;;;24.85;7.20;;;;;;;-142.57;50.45;115900.28;4902175;29;20075;-88
2023/05/26 09:26:47;;;;;;;13.25;6.82;;;;;;;-142.57;49.34;115900.28;4901112;29;20044;-87
2023/05/26 09:29:13;;;;;;;10.35;7.20;;;;;;;-142.57;49.52;115900.28;4898701;29;20028;-86
2023/05/26 09:31:41;;;;;;;11.80;6.88;;;;;;;-142.57;49.09;115900.28;4899783;29;20033;-83
2023/05/26 09:34:09;;;;;;;11.65;5.80;;;;;;;-142.57;47.32;115900.28;4898859;29;20526;-86
2023/05/26 09:36:36;;;;;;;14.07;6.18;;;;;;;-142.57;47.04;115900.28;4900516;29;20055;-85
2023/05/26 09:39:07;;;;;;;13.18;6.05;;;;;;;-142.57;46.19;115900.28;4902336;29;20048;-92
2023/05/26 09:41:38;;;;;;;17.00;6.55;;;;;;;-142.57;45.23;115900.28;4903238;29;20044;-84
2023/05/26 09:44:18;;;;;;;17.98;5.82;;;;;;;-142.57;46.37;115900.28;4902764;29;20051;-84
2023/05/26 09:46:47;;;;;;;17.10;5.90;;;;;;;-142.57;46.06;115900.28;4882125;29;20543;-89
2023/05/26 09:49:17;;;;;;;12.68;6.90;;;;;;;-142.57;44.84;115900.28;4906833;29;20387;-88
2023/05/26 09:51:48;;;;;;;15.35;5.90;;;;;;;-142.57;46.62;115900.28;4915268;29;20040;-79
2023/05/26 09:54:17;;;;;;;12.55;6.53;;;;;;;-142.57;45.54;115900.28;4897952;29;20072;-79
2023/05/26 09:56:53;;;;;;;18.02;6.30;;;;;;;-142.57;45.71;115900.28;4909732;29;20061;-81
2023/05/26 09:59:20;;;;;;;12.07;5.47;;;;;;;-142.57;44.78;115900.28;4887205;29;20127;-87
2023/05/26 10:01:46;;;;;;;16.60;5.78;;;;;;;-142.57;42.98;115900.28;4901443;29;20037;-88
2023/05/26 10:04:14;;;;;;;13.15;5.90;;;;;;;-142.57;42.86;115900.28;4882431;29;20503;-86
2023/05/26 10:06:40;;;;;;;9.50;5.40;;;;;;;-142.57;42.50;115900.28;4884282;29;20483;-86
2023/05/26 10:09:07;;;;;;;11.43;5.00;;;;;;;-142.57;43.18;115900.28;4899843;29;20626;-84
2023/05/26 10:11:38;;;;;;;11.07;5.00;;;;;;;-142.57;43.00;115900.28;4899932;29;20024;-85
2023/05/26 10:14:05;;;;;;;12.95;6.20;;;;;;;-142.57;42.81;115900.28;4899160;29;20139;-82
2023/05/26 10:16:32;;;;;;;12.68;5.72;;;;;;;-142.57;42.83;115900.28;4900855;29;20404;-84
2023/05/26 10:18:58;;;;;;;13.48;5.25;;;;;;;-142.57;41.80;115900.28;4897052;29;20037;-82
2023/05/26 10:21:28;;;;;;;11.07;6.18;;;;;;;-142.57;41.20;115900.28;4901307;29;20149;-81
2023/05/26 10:24:21;;;;;;;14.45;6.43;;;;;;;-142.57;41.17;115900.28;4892114;29;20043;-84
2023/05/26 10:26:52;;;;;;;;;;;;;;;-142.57;41.61;115900.28;4902222;29;20067;-82
2023/05/26 10:29:34;;;;;;;15.32;5.68;;;;;;;-142.57;39.82;115900.28;4901095;29;20322;-83
2023/05/26 10:32:03;;;;;;;11.88;5.78;;;;;;;-142.57;40.82;115900.28;4888393;29;20041;-88
2023/05/26 10:34:36;;;;;;;11.85;6.32;;;;;;;-142.57;40.74;115900.28;4899489;29;20122;-87
2023/05/26 10:37:11;;;;;;;15.57;6.15;;;;;;;-142.57;42.16;115900.28;4884257;29;20048;-83
2023/05/26 10:39:36;;;;;;;11.82;5.88;;;;;;;-142.57;40.97;115900.28;4899849;29;20056;-84
2023/05/26 10:42:15;;;;;;;10.93;6.15;;;;;;;-142.57;41.05;115900.28;4902153;29;20040;-81
2023/05/26 10:44:50;;;;;;;12.80;5.93;;;;;;;-142.57;41.14;115900.28;4902304;29;20048;-82
2023/05/26 10:47:17;;;;;;;10.82;5.60;;;;;;;-142.57;41.78;115900.28;4901460;29;20068;-82
2023/05/26 10:49:54;;;;;;;13.05;5.00;;;;;;;-142.57;40.68;115900.28;4900430;29;20455;-84
2023/05/26 10:52:25;;;;;;;8.15;5.10;;;;;;;-142.57;37.84;115900.28;4904249;29;20041;-81
2023/05/26 10:54:51;;;;;;;13.70;5.22;;;;;;;-142.57;38.56;115900.28;4904010;29;20064;-85
2023/05/26 10:57:31;;;;;;;12.10;4.60;;;;;;;-142.57;36.65;115900.28;4903317;29;20032;-82
2023/05/26 11:00:16;;;;;;;11.02;4.28;;;;;;;-142.57;35.58;115900.28;4871055;29;20139;-83
2023/05/26 11:02:42;;;;;;;16.23;4.00;;;;;;;-142.57;35.22;115900.28;4900734;29;20083;-88
2023/05/26 11:05:28;;;;;;;10.40;4.40;;;;;;;-142.57;35.77;115900.28;4900482;29;20099;-86
2023/05/26 11:07:56;;;;;;;12.95;3.65;;;;;;;-142.57;35.52;115900.28;4886065;29;20111;-85
2023/05/26 11:10:21;;;;;;;7.55;3.72;;;;;;;-142.57;36.53;115900.28;4901070;29;20065;-85